Time;durP1;ratioP1;P1;durP2;ratioP2;P2;SDS_P1;SDS_P2;PMS_P1;PMS_P2;Temp;Humidity;BMP_temperature;BMP_pressure;BME280_temperature;BME280_humidity;BME280_pressure;Samples;Min_cycle;Max_cycle;Signal;HPM_P1;HPM_P2
2021/06/27 00:02:17;;;;;;;14.07;7.28;;;;;;;14.02;100.00;93877.72;5134189;28;20196;-82
2021/06/27 00:04:43;;;;;;;11.83;8.23;;;;;;;13.98;100.00;93881.00;5136075;28;20196;-81
2021/06/27 00:07:11;;;;;;;12.50;7.40;;;;;;;13.95;100.00;93881.41;5134638;28;20292;-80
2021/06/27 00:09:41;;;;;;;17.57;8.43;;;;;;;13.93;100.00;93883.47;5135337;28;20651;-83
2021/06/27 00:12:08;;;;;;;11.17;7.60;;;;;;;13.99;100.00;93877.31;5137808;28;20200;-81
2021/06/27 00:14:35;;;;;;;14.40;7.97;;;;;;;13.91;100.00;93881.06;5135984;28;20197;-81
2021/06/27 00:17:01;;;;;;;10.30;7.37;;;;;;;13.98;100.00;93884.41;5135291;27;20203;-80
2021/06/27 00:19:28;;;;;;;10.13;7.40;;;;;;;13.87;100.00;93875.44;5141736;27;20197;-80
2021/06/27 00:21:54;;;;;;;12.35;8.15;;;;;;;13.91;100.00;93869.78;5141235;27;20434;-81
2021/06/27 00:24:21;;;;;;;11.77;8.27;;;;;;;14.07;100.00;93869.97;5140969;27;20193;-80
2021/06/27 00:26:50;;;;;;;12.40;7.10;;;;;;;14.06;100.00;93868.38;5140701;27;20232;-80
2021/06/27 00:29:17;;;;;;;11.40;7.50;;;;;;;14.14;100.00;93864.66;5137719;27;20289;-79
2021/06/27 00:31:45;;;;;;;10.27;7.00;;;;;;;14.28;100.00;93857.41;5144201;27;20204;-81
2021/06/27 00:34:12;;;;;;;12.93;8.00;;;;;;;14.27;100.00;93857.63;5145270;27;20287;-81
2021/06/27 00:36:38;;;;;;;12.43;7.10;;;;;;;14.25;100.00;93849.97;5145517;27;20201;-82
2021/06/27 00:39:06;;;;;;;9.57;6.60;;;;;;;14.41;100.00;93852.00;5138109;27;20776;-79
2021/06/27 00:41:32;;;;;;;10.27;7.07;;;;;;;14.42;100.00;93856.22;5137238;27;20288;-78
2021/06/27 00:44:00;;;;;;;11.33;7.23;;;;;;;14.70;100.00;93852.22;5137349;27;20729;-80
2021/06/27 00:46:27;;;;;;;8.50;5.63;;;;;;;14.91;100.00;93855.38;5137813;27;20203;-79
2021/06/27 00:48:55;;;;;;;12.47;6.60;;;;;;;15.05;100.00;93854.16;5137681;27;20314;-82
2021/06/27 00:51:22;;;;;;;9.40;6.63;;;;;;;14.90;100.00;93853.78;5137305;27;20211;-81
2021/06/27 00:53:50;;;;;;;9.97;6.07;;;;;;;14.70;100.00;93846.97;5138234;27;20204;-81
2021/06/27 00:56:17;;;;;;;9.27;6.10;;;;;;;14.65;100.00;93848.69;5136900;27;20205;-80
2021/06/27 00:58:44;;;;;;;12.90;6.47;;;;;;;14.70;100.00;93849.59;5137727;27;20222;-80
2021/06/27 01:01:18;;;;;;;8.57;5.70;;;;;;;14.77;100.00;93849.50;5136825;27;20211;-81
2021/06/27 01:03:44;;;;;;;10.20;5.70;;;;;;;14.96;100.00;93855.50;5137113;27;20200;-79
2021/06/27 01:06:11;;;;;;;8.57;5.97;;;;;;;15.06;100.00;93861.03;5136813;27;20197;-80
2021/06/27 01:08:38;;;;;;;12.60;6.03;;;;;;;14.91;100.00;93868.53;5136702;27;20225;-79
2021/06/27 01:11:05;;;;;;;12.90;5.67;;;;;;;14.89;100.00;93875.81;5136821;27;20283;-79
2021/06/27 01:13:33;;;;;;;9.63;5.55;;;;;;;14.86;100.00;93876.28;5136595;27;20201;-80
2021/06/27 01:15:59;;;;;;;7.10;5.43;;;;;;;14.70;100.00;93883.75;5136799;27;20192;-80
2021/06/27 01:18:27;;;;;;;6.77;5.27;;;;;;;14.68;100.00;93874.53;5137216;27;20629;-79
2021/06/27 01:20:54;;;;;;;9.87;5.57;;;;;;;14.53;100.00;93869.63;5136606;27;20193;-79
2021/06/27 01:23:24;;;;;;;11.23;6.23;;;;;;;14.80;100.00;93865.66;5137075;27;20196;-79
2021/06/27 01:25:54;;;;;;;10.50;5.90;;;;;;;14.80;100.00;93868.28;5137028;27;20287;-81
2021/06/27 01:28:21;;;;;;;7.87;5.43;;;;;;;14.84;100.00;93863.38;5136353;27;20332;-80
2021/06/27 01:30:52;;;;;;;7.87;5.60;;;;;;;14.81;100.00;93871.69;5136059;27;20192;-81
2021/06/27 01:33:22;;;;;;;7.60;5.70;;;;;;;14.72;100.00;93860.72;5136544;27;20204;-79
2021/06/27 01:35:50;;;;;;;8.20;5.57;;;;;;;14.75;100.00;93860.25;5136179;27;20197;-80
2021/06/27 01:38:18;;;;;;;7.72;5.03;;;;;;;14.68;100.00;93861.38;5136076;27;20196;-82
2021/06/27 01:40:51;;;;;;;9.00;5.93;;;;;;;14.70;100.00;93852.22;5136270;27;20192;-78
2021/06/27 01:43:24;;;;;;;7.65;5.40;;;;;;;14.69;100.00;93850.66;5136213;27;20229;-80
2021/06/27 01:45:55;;;;;;;7.43;4.82;;;;;;;14.63;100.00;93861.25;5136044;27;20192;-80
2021/06/27 01:48:22;;;;;;;7.13;5.63;;;;;;;14.66;100.00;93866.84;5135146;27;20781;-82
2021/06/27 01:50:55;;;;;;;8.07;5.43;;;;;;;14.76;100.00;93861.84;5136163;27;20201;-81
2021/06/27 01:53:25;;;;;;;10.38;5.45;;;;;;;14.74;100.00;93863.13;5136113;27;20197;-81
2021/06/27 01:56:05;;;;;;;7.70;5.18;;;;;;;14.78;100.00;93866.88;5136333;27;20192;-81
2021/06/27 01:58:39;;;;;;;8.13;5.10;;;;;;;14.85;100.00;93859.69;5136116;27;20200;-81
2021/06/27 02:01:10;;;;;;;7.33;4.80;;;;;;;14.77;100.00;93858.22;5136149;27;20200;-81
2021/06/27 02:03:40;;;;;;;7.43;4.60;;;;;;;14.77;100.00;93852.97;5136784;27;20200;-81
2021/06/27 02:06:08;;;;;;;7.65;5.07;;;;;;;14.75;100.00;93841.06;5136681;27;20203;-81
2021/06/27 02:08:37;;;;;;;8.48;5.00;;;;;;;14.77;100.00;93841.63;5136214;27;20256;-81
2021/06/27 02:11:06;;;;;;;9.87;5.40;;;;;;;14.61;100.00;93830.72;5135921;27;20212;-79
2021/06/27 02:13:35;;;;;;;9.67;5.10;;;;;;;14.78;100.00;93832.72;5136744;27;20204;-80
2021/06/27 02:16:02;;;;;;;8.65;4.88;;;;;;;14.90;100.00;93830.91;5135694;27;20254;-79
2021/06/27 02:18:33;;;;;;;8.73;4.78;;;;;;;15.01;100.00;93831.97;5135565;27;20205;-80
2021/06/27 02:21:07;;;;;;;10.90;5.10;;;;;;;15.18;100.00;93835.53;5135534;27;20730;-81
2021/06/27 02:23:34;;;;;;;5.72;4.32;;;;;;;15.14;100.00;93829.13;5135325;27;20204;-79
2021/06/27 02:26:01;;;;;;;9.73;4.88;;;;;;;14.99;100.00;93834.03;5136032;27;20225;-81
2021/06/27 02:28:31;;;;;;;6.63;4.50;;;;;;;14.91;100.00;93831.72;5135606;27;20247;-80
2021/06/27 02:30:58;;;;;;;7.75;4.82;;;;;;;15.11;100.00;93820.91;5137277;27;20690;-81
2021/06/27 02:33:24;;;;;;;7.28;4.32;;;;;;;15.24;100.00;93825.94;5136264;27;20196;-83
2021/06/27 02:35:51;;;;;;;6.90;4.25;;;;;;;15.30;100.00;93819.75;5135538;27;20651;-80
2021/06/27 02:38:19;;;;;;;7.85;4.32;;;;;;;15.39;100.00;93827.31;5136450;27;20204;-80
2021/06/27 02:40:45;;;;;;;8.73;4.93;;;;;;;15.32;100.00;93816.91;5135930;27;20228;-80
2021/06/27 02:43:13;;;;;;;8.70;4.90;;;;;;;15.24;100.00;93822.50;5136271;27;20204;-81
2021/06/27 02:45:42;;;;;;;6.93;4.65;;;;;;;15.31;100.00;93815.31;5135424;27;20205;-81
2021/06/27 02:48:09;;;;;;;7.57;5.15;;;;;;;15.36;100.00;93810.94;5135035;27;20273;-80
2021/06/27 02:50:37;;;;;;;8.75;5.38;;;;;;;15.58;100.00;93807.75;5135156;27;20291;-79
2021/06/27 02:53:04;;;;;;;6.95;4.40;;;;;;;15.57;100.00;93807.97;5134616;27;20192;-83
2021/06/27 02:55:31;;;;;;;7.82;4.90;;;;;;;15.54;100.00;93799.50;5134930;27;20204;-80
2021/06/27 02:57:57;;;;;;;9.30;4.78;;;;;;;15.63;100.00;93807.06;5135081;27;20201;-81
2021/06/27 03:00:24;;;;;;;7.53;4.55;;;;;;;15.66;100.00;93806.59;5135073;27;20666;-82
2021/06/27 03:02:52;;;;;;;7.45;4.97;;;;;;;15.81;100.00;93801.69;5134964;27;20207;-79
2021/06/27 03:05:19;;;;;;;7.20;4.28;;;;;;;15.75;100.00;93799.94;5134642;27;20215;-81
2021/06/27 03:07:46;;;;;;;6.53;3.92;;;;;;;15.76;100.00;93795.53;5135819;27;20254;-82
2021/06/27 03:10:14;;;;;;;5.43;3.72;;;;;;;15.70;100.00;93786.66;5135090;27;20204;-81
2021/06/27 03:12:44;;;;;;;6.95;4.18;;;;;;;15.68;100.00;93772.94;5135267;27;20206;-83
2021/06/27 03:15:11;;;;;;;5.80;4.13;;;;;;;15.60;100.00;93760.16;5134550;27;20670;-80
2021/06/27 03:17:38;;;;;;;6.05;4.05;;;;;;;15.59;100.00;93764.63;5134305;27;20227;-79
2021/06/27 03:20:09;;;;;;;5.90;4.20;;;;;;;15.64;100.00;93769.19;5134371;27;20203;-81
2021/06/27 03:22:36;;;;;;;6.47;4.07;;;;;;;15.72;100.00;93766.16;5134361;27;20200;-80
2021/06/27 03:25:04;;;;;;;6.70;3.92;;;;;;;15.78;100.00;93756.59;5134312;27;20200;-78
2021/06/27 03:27:31;;;;;;;6.90;4.10;;;;;;;15.81;100.00;93753.50;5134060;27;20232;-80
2021/06/27 03:29:57;;;;;;;7.43;4.00;;;;;;;15.77;100.00;93747.91;5134531;27;20698;-82
2021/06/27 03:32:24;;;;;;;5.53;3.67;;;;;;;15.83;100.00;93743.53;5134275;27;20295;-80
2021/06/27 03:34:51;;;;;;;6.47;4.03;;;;;;;15.76;100.00;93748.13;5134051;27;20197;-80
2021/06/27 03:37:19;;;;;;;6.50;3.80;;;;;;;15.78;100.00;93754.75;5134305;27;20207;-79
2021/06/27 03:39:45;;;;;;;7.07;4.05;;;;;;;15.75;100.00;93776.25;5133918;27;20655;-79
2021/06/27 03:42:12;;;;;;;4.60;3.65;;;;;;;15.79;100.00;93785.31;5134581;27;20200;-81
2021/06/27 03:44:39;;;;;;;5.97;3.90;;;;;;;15.78;100.00;93777.66;5134418;27;20200;-79
2021/06/27 03:47:05;;;;;;;7.78;4.18;;;;;;;15.69;100.00;93795.63;5134548;27;20585;-81
2021/06/27 03:49:32;;;;;;;8.23;3.70;;;;;;;15.76;100.00;93796.31;5133770;28;20687;-81
2021/06/27 03:51:58;;;;;;;5.60;4.05;;;;;;;15.79;100.00;93801.13;5133544;27;20659;-81
2021/06/27 03:54:26;;;;;;;5.15;3.60;;;;;;;15.78;100.00;93799.50;5134319;28;20288;-79
2021/06/27 03:56:53;;;;;;;5.90;3.97;;;;;;;15.76;100.00;93801.56;5134218;28;20432;-81
2021/06/27 03:59:19;;;;;;;4.85;3.70;;;;;;;15.64;100.00;93803.41;5133860;28;20198;-82
2021/06/27 04:01:46;;;;;;;5.13;3.65;;;;;;;15.59;100.00;93813.78;5136285;28;20674;-82
2021/06/27 04:04:12;;;;;;;7.18;3.30;;;;;;;15.44;100.00;93817.72;5133900;28;20669;-79
2021/06/27 04:06:39;;;;;;;6.78;3.60;;;;;;;15.38;100.00;93802.03;5134102;28;20208;-81
2021/06/27 04:09:05;;;;;;;4.65;3.40;;;;;;;15.27;100.00;93791.31;5133950;28;20228;-82
2021/06/27 04:11:33;;;;;;;4.95;3.45;;;;;;;15.22;100.00;93793.81;5133616;28;20663;-80
2021/06/27 04:14:00;;;;;;;5.82;3.45;;;;;;;15.22;100.00;93790.38;5134071;28;20204;-80
2021/06/27 04:16:28;;;;;;;4.35;3.30;;;;;;;15.29;100.00;93801.59;5133654;28;20192;-81
2021/06/27 04:18:55;;;;;;;4.80;3.47;;;;;;;15.39;100.00;93799.19;5134096;28;20200;-82
2021/06/27 04:21:21;;;;;;;6.47;3.97;;;;;;;15.43;100.00;93802.94;5133777;28;20223;-81
2021/06/27 04:23:48;;;;;;;4.70;3.65;;;;;;;15.48;100.00;93802.25;5134157;28;20228;-81
2021/06/27 04:26:16;;;;;;;7.10;3.78;;;;;;;15.53;100.00;93800.53;5133763;28;20208;-81
2021/06/27 04:28:44;;;;;;;6.45;3.75;;;;;;;15.61;100.00;93802.03;5133165;28;20241;-80
2021/06/27 04:31:11;;;;;;;4.95;3.50;;;;;;;15.68;100.00;93800.06;5134333;28;20211;-81
2021/06/27 04:33:37;;;;;;;7.72;3.70;;;;;;;15.70;100.00;93791.94;5139772;28;20208;-83
2021/06/27 04:36:05;;;;;;;6.10;3.72;;;;;;;15.75;100.00;93799.16;5134672;28;20280;-79
2021/06/27 04:38:31;;;;;;;5.82;4.00;;;;;;;15.76;100.00;93791.03;5115118;28;20204;-80
2021/06/27 04:40:58;;;;;;;6.72;3.97;;;;;;;15.90;100.00;93802.13;5133892;28;20224;-80
2021/06/27 04:43:24;;;;;;;5.05;3.50;;;;;;;15.93;100.00;93801.66;5134179;28;20212;-80
2021/06/27 04:45:52;;;;;;;5.90;3.88;;;;;;;15.98;100.00;93806.22;5136550;28;20200;-81
2021/06/27 04:48:19;;;;;;;4.78;3.25;;;;;;;16.06;100.00;93805.88;5136650;28;20201;-82
2021/06/27 04:50:47;;;;;;;7.70;3.67;;;;;;;16.15;100.00;93793.91;5133790;28;20552;-80
2021/06/27 04:53:15;;;;;;;5.05;3.55;;;;;;;16.23;100.00;93785.63;5133404;28;20192;-80
2021/06/27 04:55:43;;;;;;;6.13;4.07;;;;;;;16.31;100.00;93778.41;5133341;28;20193;-80
2021/06/27 04:58:09;;;;;;;4.90;3.60;;;;;;;16.36;100.00;93773.22;5136929;28;20254;-81
2021/06/27 05:00:37;;;;;;;5.43;3.65;;;;;;;16.52;100.00;93780.38;5133761;28;20280;-80
2021/06/27 05:03:06;;;;;;;7.05;4.30;;;;;;;16.55;100.00;93777.25;5133899;28;20720;-83
2021/06/27 05:05:33;;;;;;;7.40;4.75;;;;;;;16.64;100.00;93781.09;5135367;27;20196;-80
2021/06/27 05:07:59;;;;;;;9.25;4.78;;;;;;;16.78;100.00;93775.53;5139547;27;20283;-80
2021/06/27 05:10:26;;;;;;;5.80;4.18;;;;;;;16.82;100.00;93792.47;5139886;27;20235;-77
2021/06/27 05:12:52;;;;;;;5.22;3.78;;;;;;;16.80;100.00;93786.63;5144487;27;20204;-82
2021/06/27 05:15:18;;;;;;;5.32;3.88;;;;;;;16.80;100.00;93779.53;5138797;27;20197;-83
2021/06/27 05:17:45;;;;;;;7.55;3.80;;;;;;;16.83;100.00;93776.41;5139079;27;20204;-82
2021/06/27 05:20:14;;;;;;;7.63;4.15;;;;;;;16.84;100.00;93774.56;5138421;27;20200;-83
2021/06/27 05:22:41;;;;;;;6.45;4.53;;;;;;;16.90;100.00;93773.63;5136577;27;20521;-80
2021/06/27 05:25:09;;;;;;;7.78;4.30;;;;;;;16.90;100.00;93767.56;5137609;27;20222;-82
2021/06/27 05:27:35;;;;;;;8.05;4.40;;;;;;;17.02;100.00;93771.72;5140151;27;20233;-80
2021/06/27 05:30:02;;;;;;;5.72;3.83;;;;;;;17.12;100.00;93773.72;5136537;27;20284;-82
2021/06/27 05:32:29;;;;;;;5.25;3.63;;;;;;;17.27;100.00;93775.78;5139855;27;20596;-83
2021/06/27 05:34:55;;;;;;;4.65;3.65;;;;;;;17.52;100.00;93771.91;5139878;27;20196;-82
2021/06/27 05:37:23;;;;;;;5.05;2.92;;;;;;;17.87;100.00;93770.78;5137658;27;20204;-82
2021/06/27 05:39:49;;;;;;;5.07;2.97;;;;;;;18.16;100.00;93765.34;5140890;27;20197;-82
2021/06/27 05:42:18;;;;;;;4.55;2.90;;;;;;;18.71;96.77;93769.56;5137489;27;20730;-81
2021/06/27 05:44:45;;;;;;;4.25;2.85;;;;;;;19.26;92.24;93769.50;5137319;27;20205;-81
2021/06/27 05:47:12;;;;;;;6.03;3.20;;;;;;;19.94;87.54;93762.50;5137419;27;20283;-80
2021/06/27 05:49:38;;;;;;;3.28;2.60;;;;;;;20.81;83.35;93761.94;5136694;27;20690;-81
2021/06/27 05:52:05;;;;;;;4.18;2.38;;;;;;;20.50;81.11;93769.00;5136197;27;20674;-80
2021/06/27 05:54:33;;;;;;;3.35;2.90;;;;;;;19.71;84.75;93771.63;5136754;27;20436;-80
2021/06/27 05:56:59;;;;;;;3.75;2.90;;;;;;;18.97;89.86;93772.47;5136027;27;20671;-81
2021/06/27 05:59:26;;;;;;;3.95;2.70;;;;;;;18.53;92.30;93762.78;5137838;27;20215;-82
2021/06/27 06:01:52;;;;;;;5.20;2.50;;;;;;;18.59;91.72;93772.38;5137633;27;20203;-80
2021/06/27 06:04:18;;;;;;;3.33;2.80;;;;;;;18.64;92.01;93769.00;5137027;27;20205;-80
2021/06/27 06:06:45;;;;;;;4.03;2.80;;;;;;;18.89;91.05;93773.72;5136944;27;20208;-81
2021/06/27 06:09:11;;;;;;;2.50;2.25;;;;;;;19.96;86.08;93773.63;5135593;27;20221;-81
2021/06/27 06:11:39;;;;;;;2.88;2.25;;;;;;;21.36;77.39;93778.09;5136816;27;20236;-81
2021/06/27 06:14:06;;;;;;;7.88;2.60;;;;;;;22.61;71.61;93779.34;5135693;27;20213;-80
2021/06/27 06:16:33;;;;;;;2.40;1.83;;;;;;;23.33;70.57;93777.00;5135110;27;20208;-80
2021/06/27 06:19:02;;;;;;;2.67;2.15;;;;;;;23.97;71.65;93777.69;5135346;27;20200;-81
2021/06/27 06:21:28;;;;;;;3.47;2.30;;;;;;;24.41;70.45;93769.72;5135502;27;20223;-81
2021/06/27 06:23:55;;;;;;;2.40;1.98;;;;;;;25.37;63.60;93771.28;5135754;27;20212;-81
2021/06/27 06:26:24;;;;;;;2.42;1.92;;;;;;;25.76;64.05;93765.50;5135759;27;20197;-80
2021/06/27 06:28:52;;;;;;;2.60;1.90;;;;;;;25.91;62.09;93763.63;5135384;27;20224;-82
2021/06/27 06:31:19;;;;;;;2.80;2.30;;;;;;;25.22;62.24;93772.31;5135298;27;20581;-81
2021/06/27 06:33:45;;;;;;;3.67;2.08;;;;;;;23.12;67.27;93773.69;5135055;27;20193;-80
2021/06/27 06:36:12;;;;;;;2.50;2.20;;;;;;;21.90;71.67;93776.72;5135457;27;20238;-81
2021/06/27 06:38:38;;;;;;;2.58;2.10;;;;;;;22.05;72.65;93773.19;5136290;27;20208;-80
2021/06/27 06:41:05;;;;;;;3.63;2.15;;;;;;;21.79;74.74;93767.97;5138449;27;20207;-81
2021/06/27 06:43:31;;;;;;;4.40;2.20;;;;;;;21.60;76.73;93766.97;5134970;27;20196;-80
2021/06/27 06:45:59;;;;;;;4.50;2.38;;;;;;;21.07;78.20;93764.59;5134924;27;20200;-80
2021/06/27 06:48:25;;;;;;;2.53;2.20;;;;;;;21.17;79.50;93763.81;5134576;27;20203;-80
2021/06/27 06:50:54;;;;;;;3.38;2.35;;;;;;;21.42;76.71;93761.09;5135046;27;20225;-82
2021/06/27 06:53:20;;;;;;;3.30;2.10;;;;;;;21.91;77.94;93772.97;5135092;27;20203;-81
2021/06/27 06:55:49;;;;;;;2.55;2.10;;;;;;;21.93;82.25;93770.03;5134659;27;20655;-80
2021/06/27 06:58:15;;;;;;;3.20;2.33;;;;;;;22.06;81.23;93768.66;5134791;27;20200;-80
2021/06/27 07:00:41;;;;;;;8.77;2.53;;;;;;;21.88;76.43;93770.06;5134049;27;20196;-80
2021/06/27 07:03:15;;;;;;;2.95;2.15;;;;;;;22.17;76.59;93757.72;5134510;27;20197;-82
2021/06/27 07:05:44;;;;;;;3.70;2.50;;;;;;;21.94;77.12;93751.16;5138914;27;20196;-80
2021/06/27 07:08:13;;;;;;;3.40;2.33;;;;;;;21.78;78.79;93761.06;5134811;27;20204;-80
2021/06/27 07:10:40;;;;;;;3.42;2.28;;;;;;;21.51;79.16;93755.28;5134802;27;20220;-80
2021/06/27 07:13:11;;;;;;;3.75;2.22;;;;;;;21.48;78.90;93758.47;5134705;27;20200;-80
2021/06/27 07:15:41;;;;;;;3.20;2.47;;;;;;;21.49;78.68;93760.06;5134505;27;20257;-80
2021/06/27 07:18:08;;;;;;;4.70;2.42;;;;;;;21.14;81.63;93764.34;5135180;27;20201;-79
2021/06/27 07:20:41;;;;;;;2.53;1.90;;;;;;;21.15;82.39;93760.59;5134347;27;20193;-83
2021/06/27 07:23:10;;;;;;;3.05;1.90;;;;;;;21.33;79.62;93752.06;5134321;27;20193;-81
2021/06/27 07:25:39;;;;;;;2.60;2.15;;;;;;;21.45;80.94;93751.81;5135745;27;20205;-79
2021/06/27 07:28:07;;;;;;;3.05;1.98;;;;;;;21.36;79.24;93742.78;5133139;27;20232;-83
2021/06/27 07:30:35;;;;;;;2.55;2.00;;;;;;;21.26;78.05;93744.38;5134329;27;20266;-83
2021/06/27 07:33:04;;;;;;;6.70;2.00;;;;;;;21.21;81.50;93740.94;5134594;27;20197;-82
2021/06/27 07:35:32;;;;;;;3.60;1.90;;;;;;;21.37;81.56;93736.44;5134473;27;20192;-81
2021/06/27 07:38:00;;;;;;;2.45;2.13;;;;;;;21.55;82.22;93730.56;5134016;27;20201;-79
2021/06/27 07:40:28;;;;;;;2.47;1.88;;;;;;;21.45;79.42;93738.53;5135245;27;20200;-85
2021/06/27 07:42:54;;;;;;;4.53;1.98;;;;;;;21.44;78.93;93743.03;5135245;27;20200;-80
2021/06/27 07:45:21;;;;;;;2.63;2.03;;;;;;;21.50;80.48;93735.91;5134354;27;20199;-82
2021/06/27 07:47:47;;;;;;;2.30;1.70;;;;;;;21.54;76.44;93742.25;5133976;27;20528;-81
2021/06/27 07:50:20;;;;;;;2.53;1.92;;;;;;;21.65;77.88;93750.19;5134284;28;20224;-83
2021/06/27 07:52:47;;;;;;;3.28;1.80;;;;;;;21.70;77.69;93748.34;5134157;28;20245;-80
2021/06/27 07:55:19;;;;;;;2.80;2.00;;;;;;;21.76;76.82;93749.09;5133892;28;20193;-80
2021/06/27 07:57:49;;;;;;;2.45;1.85;;;;;;;21.86;77.02;93751.72;5133996;28;20211;-79
2021/06/27 08:00:18;;;;;;;2.42;1.90;;;;;;;21.90;76.12;93752.78;5133704;28;20204;-79
2021/06/27 08:02:44;;;;;;;2.63;1.90;;;;;;;22.15;73.81;93754.53;5132902;28;20845;-79
2021/06/27 08:05:20;;;;;;;1.65;1.52;;;;;;;22.32;76.20;93756.09;5133645;28;20663;-79
2021/06/27 08:07:46;;;;;;;1.92;1.60;;;;;;;;;;5133708;28;20196;-80
2021/06/27 08:10:16;;;;;;;2.30;1.45;;;;;;;22.68;72.42;93761.19;5133781;28;20676;-78
2021/06/27 08:12:46;;;;;;;1.88;1.60;;;;;;;22.52;73.93;93761.28;5133130;28;20283;-79
2021/06/27 08:15:18;;;;;;;2.08;1.70;;;;;;;22.69;77.33;93762.78;5133831;28;20201;-79
2021/06/27 08:17:47;;;;;;;1.55;1.42;;;;;;;22.68;70.23;93763.84;5133458;28;20585;-79
2021/06/27 08:20:19;;;;;;;1.48;1.35;;;;;;;22.94;71.08;93761.03;5133382;28;20563;-78
2021/06/27 08:22:51;;;;;;;2.47;1.67;;;;;;;23.07;77.98;93755.09;5133704;28;20207;-79
2021/06/27 08:25:18;;;;;;;3.70;2.05;;;;;;;22.82;70.71;93748.84;5133519;28;20662;-79
2021/06/27 08:27:51;;;;;;;4.40;1.70;;;;;;;22.75;75.19;93742.25;5133233;28;20237;-78
2021/06/27 08:30:23;;;;;;;3.05;1.80;;;;;;;23.04;78.88;93751.06;5133423;28;20224;-79
2021/06/27 08:32:52;;;;;;;5.78;1.85;;;;;;;23.03;72.51;93746.03;5133307;28;20292;-78
2021/06/27 08:35:23;;;;;;;2.90;1.67;;;;;;;23.13;69.86;93755.84;5133575;28;20201;-78
2021/06/27 08:37:52;;;;;;;2.08;1.45;;;;;;;23.20;69.50;93737.66;5133571;28;20193;-77
2021/06/27 08:40:26;;;;;;;4.10;1.88;;;;;;;23.10;67.43;93743.88;5136647;27;20217;-77
2021/06/27 08:42:55;;;;;;;2.28;1.42;;;;;;;23.09;72.08;93747.63;5137243;27;20604;-78
2021/06/27 08:45:23;;;;;;;1.48;1.38;;;;;;;23.19;70.24;93742.19;5137487;27;20200;-77
2021/06/27 08:47:52;;;;;;;2.30;1.83;;;;;;;22.92;67.92;93735.47;5137193;27;20200;-77
2021/06/27 08:50:25;;;;;;;3.05;1.48;;;;;;;23.07;68.82;93733.78;5136899;27;20220;-77
2021/06/27 08:52:53;;;;;;;2.00;1.25;;;;;;;23.20;59.46;93733.13;5137078;27;20200;-78
2021/06/27 08:55:20;;;;;;;1.40;1.30;;;;;;;23.15;65.91;93730.53;5136014;27;20437;-78
2021/06/27 08:57:47;;;;;;;7.55;1.55;;;;;;;23.19;64.87;93725.44;5137266;27;20207;-79
2021/06/27 09:00:15;;;;;;;2.30;1.40;;;;;;;22.98;66.98;93730.09;5136828;27;20667;-78
2021/06/27 09:02:42;;;;;;;3.15;1.50;;;;;;;23.14;68.04;93728.91;5137038;27;20227;-78
2021/06/27 09:05:12;;;;;;;2.40;1.67;;;;;;;23.06;65.39;93734.81;5136904;27;20193;-78
2021/06/27 09:07:40;;;;;;;1.50;1.40;;;;;;;23.21;65.50;93733.91;5136577;27;20295;-80
2021/06/27 09:10:10;;;;;;;2.83;1.30;;;;;;;23.28;62.18;93729.88;5136554;27;20280;-79
2021/06/27 09:12:50;;;;;;;1.88;1.48;;;;;;;23.35;60.53;93726.88;5136421;27;20578;-79
2021/06/27 09:15:38;;;;;;;1.80;1.42;;;;;;;23.45;62.88;93728.66;5138134;27;20299;-84
2021/06/27 09:18:11;;;;;;;1.98;1.48;;;;;;;23.45;61.89;93733.97;5137440;27;20245;-82
2021/06/27 09:20:41;;;;;;;3.78;1.30;;;;;;;23.52;64.61;93731.75;5137062;27;20208;-82
2021/06/27 09:23:17;;;;;;;1.70;1.52;;;;;;;23.72;65.28;93732.63;5136732;27;20261;-80
2021/06/27 09:28:46;;;;;;;1.45;1.35;;;;;;;23.75;61.58;93740.84;5130814;27;20236;-81
2021/06/27 09:31:33;;;;;;;4.10;1.40;;;;;;;23.65;61.28;93735.63;5136547;27;20582;-82
2021/06/27 09:34:02;;;;;;;1.65;1.45;;;;;;;23.95;65.01;93731.84;5136604;27;20207;-81
2021/06/27 09:36:32;;;;;;;2.03;1.30;;;;;;;24.17;60.07;93738.53;5136317;27;20197;-79
2021/06/27 09:39:07;;;;;;;1.70;1.40;;;;;;;24.19;58.77;93745.16;5136326;27;20438;-80
2021/06/27 09:41:34;;;;;;;2.72;1.73;;;;;;;24.28;59.19;93747.19;5136186;27;20651;-81
2021/06/27 09:44:05;;;;;;;1.98;1.40;;;;;;;24.37;60.91;93743.59;5136239;27;20280;-79
2021/06/27 09:46:36;;;;;;;2.38;1.50;;;;;;;24.51;62.80;93742.88;5136382;27;20197;-79
2021/06/27 09:49:15;;;;;;;2.97;1.40;;;;;;;24.49;61.75;93737.81;5136061;27;20200;-79
2021/06/27 09:51:50;;;;;;;1.35;1.00;;;;;;;24.46;52.49;93748.28;5134951;27;20235;-79
2021/06/27 09:54:19;;;;;;;1.60;1.20;;;;;;;24.59;45.99;93744.94;5136178;27;20204;-80
2021/06/27 09:56:49;;;;;;;1.63;1.17;;;;;;;24.84;54.38;93734.97;5135983;27;20206;-79
2021/06/27 09:59:17;;;;;;;1.30;1.00;;;;;;;24.74;48.72;93731.34;5135998;27;20197;-80
2021/06/27 10:01:46;;;;;;;1.23;1.02;;;;;;;24.86;48.67;93733.56;5135449;27;20444;-79
2021/06/27 10:04:15;;;;;;;1.15;1.05;;;;;;;24.83;51.57;93723.50;5135581;27;20197;-80
2021/06/27 10:06:52;;;;;;;1.70;1.35;;;;;;;24.50;55.02;93730.63;5135878;27;20626;-80
2021/06/27 10:09:30;;;;;;;2.78;1.15;;;;;;;24.17;55.45;93727.84;5135679;27;20196;-79
2021/06/27 10:12:02;;;;;;;1.45;1.27;;;;;;;24.28;55.39;93729.31;5135444;27;20453;-80
2021/06/27 10:14:32;;;;;;;1.23;1.13;;;;;;;24.34;52.50;93717.47;5135548;27;20200;-80
2021/06/27 10:17:12;;;;;;;2.47;1.45;;;;;;;24.69;50.63;93731.41;5135695;27;20212;-78
2021/06/27 10:19:38;;;;;;;2.20;1.48;;;;;;;24.56;52.50;93727.63;5135483;27;20291;-77
2021/06/27 10:22:08;;;;;;;1.40;1.30;;;;;;;24.60;52.44;93727.84;5134649;27;20665;-76
2021/06/27 10:24:35;;;;;;;2.00;1.48;;;;;;;24.64;51.03;93731.50;5133863;27;20197;-75
2021/06/27 10:27:05;;;;;;;1.35;1.10;;;;;;;24.96;52.16;93721.94;5134349;27;20766;-76
2021/06/27 10:29:33;;;;;;;2.03;1.40;;;;;;;25.27;53.19;93719.56;5135443;27;20212;-76
2021/06/27 10:32:04;;;;;;;1.58;1.20;;;;;;;25.65;51.26;93724.00;5135258;27;20231;-76
2021/06/27 10:34:34;;;;;;;1.77;1.38;;;;;;;25.98;51.78;93726.59;5135341;27;20562;-76
2021/06/27 10:37:11;;;;;;;3.15;1.40;;;;;;;26.29;54.69;93717.94;5135208;27;20223;-76
2021/06/27 10:39:38;;;;;;;1.27;1.15;;;;;;;25.89;47.62;93726.47;5135038;27;20208;-75
2021/06/27 10:42:07;;;;;;;1.67;1.40;;;;;;;25.73;50.62;93723.31;5135240;27;20555;-77
2021/06/27 10:44:58;;;;;;;2.67;1.30;;;;;;;26.03;52.42;93713.13;5135074;27;20193;-76
2021/06/27 10:47:32;;;;;;;1.35;1.20;;;;;;;26.09;51.64;93714.59;5134980;27;20236;-77
2021/06/27 10:50:08;;;;;;;2.42;1.63;;;;;;;26.17;47.98;93726.50;5134823;27;20192;-77
2021/06/27 10:52:59;;;;;;;1.85;1.50;;;;;;;26.25;46.62;93716.94;5134715;27;20255;-76
2021/06/27 10:55:29;;;;;;;3.50;1.60;;;;;;;25.91;48.92;93723.50;5134873;27;20196;-76
2021/06/27 10:58:03;;;;;;;2.13;1.45;;;;;;;25.81;49.13;93722.63;5135062;27;20196;-76
2021/06/27 11:01:08;;;;;;;2.22;1.33;;;;;;;25.56;52.96;93717.75;5134631;27;20200;-76
2021/06/27 11:03:43;;;;;;;1.75;1.40;;;;;;;25.66;51.05;93721.03;5114048;28;20288;-75
2021/06/27 11:06:38;;;;;;;4.28;1.60;;;;;;;26.02;52.38;93709.66;5114118;28;20204;-76
2021/06/27 11:09:25;;;;;;;3.25;1.70;;;;;;;25.89;48.73;93713.09;5109107;28;20721;-77
2021/06/27 11:11:57;;;;;;;2.25;1.30;;;;;;;25.49;51.34;93710.88;5114009;28;20320;-76
2021/06/27 11:14:24;;;;;;;1.60;1.50;;;;;;;25.40;54.25;93715.34;5113946;28;20692;-76
2021/06/27 11:16:59;;;;;;;4.10;1.50;;;;;;;25.67;55.94;93713.78;5113737;28;20197;-77
2021/06/27 11:19:28;;;;;;;2.45;1.20;;;;;;;25.59;51.85;93717.16;5113736;28;20201;-78
2021/06/27 11:22:20;;;;;;;3.08;1.40;;;;;;;25.91;57.99;93707.44;5113953;28;20207;-76
2021/06/27 11:24:47;;;;;;;1.83;1.35;;;;;;;26.11;52.64;93706.25;5113862;28;20621;-75
2021/06/27 11:27:36;;;;;;;2.17;1.52;;;;;;;26.10;52.70;93697.47;5113551;28;20225;-76
2021/06/27 11:30:25;;;;;;;1.92;1.33;;;;;;;25.97;53.52;93707.06;5114074;28;20208;-76
2021/06/27 11:32:55;;;;;;;2.17;1.42;;;;;;;26.04;48.99;93698.66;5113680;28;20293;-77
2021/06/27 11:35:47;;;;;;;2.90;1.30;;;;;;;26.13;50.84;93694.19;5112708;28;20918;-76
2021/06/27 11:38:44;;;;;;;1.10;1.00;;;;;;;26.55;51.48;93697.53;5103144;28;20457;-76
2021/06/27 11:41:13;;;;;;;2.28;1.55;;;;;;;26.90;50.37;93697.84;5113808;28;20205;-78
2021/06/27 11:43:57;;;;;;;2.88;1.58;;;;;;;27.35;56.13;93698.94;5113313;28;20670;-77